KBYH/BYH METAR and TAF weather

Enter ICAO airport designator
Station Type Date Time Source
KBYH METAR 2020/01/21 22:50 UTC NOAA

KBYH 212250Z 00000KT 10SM SKC M01/M08 A3055 RMK LAST


Station Type Date Time Source
KBYH Decoded METAR 2020/01/21 22:50 UTC NOAA

Eaker Air Force Base, AR, United States (KBYH) 35-58N 089-57W
Jan 21, 2020 - 05:50 PM EST / 2020.01.21 2250 UTC
Wind: Calm:0
Visibility: 10 mile(s):0
Sky conditions: clear
Temperature: 30 F (-1 C)
Dew Point: 17 F (-8 C)
Relative Humidity: 58%
Pressure (altimeter): 30.55 in. Hg (1034 hPa)
ob: KBYH 212250Z 00000KT 10SM SKC M01/M08 A3055 RMK LAST
cycle: 23

Station Type Date Time Source
KBYH TAF UTC NOAA

Error!

Example: see airport list